createdAt,value
2018-07-14T00:00:41.071Z,52.64
2018-07-14T00:01:41.060Z,52.73
2018-07-14T00:02:41.055Z,52.93
2018-07-14T00:04:02.059Z,52.83
2018-07-14T00:04:41.040Z,52.93
2018-07-14T00:05:41.037Z,52.93
2018-07-14T00:06:41.031Z,53.02
2018-07-14T00:07:41.024Z,52.64
2018-07-14T00:08:41.233Z,52.64
2018-07-14T00:10:02.055Z,53.12
2018-07-14T00:10:41.008Z,52.64
2018-07-14T00:11:41.021Z,52.64
2018-07-14T00:12:41.023Z,52.64
2018-07-14T00:13:40.990Z,53.02
2018-07-14T00:14:41.001Z,52.73
2018-07-14T00:16:01.985Z,53.12
2018-07-14T00:16:40.973Z,53.02
2018-07-14T00:17:40.968Z,53.12
2018-07-14T00:18:40.960Z,53.12
2018-07-14T00:19:40.955Z,52.83
2018-07-14T00:20:40.948Z,53.51
2018-07-14T00:22:01.950Z,53.51
2018-07-14T00:22:40.937Z,53.22
2018-07-14T00:23:40.932Z,53.12
2018-07-14T00:24:40.927Z,53.31
2018-07-14T00:25:40.925Z,53.41
2018-07-14T00:26:40.919Z,53.31
2018-07-14T00:28:01.914Z,53.12
2018-07-14T00:28:40.903Z,53.12
2018-07-14T00:29:40.897Z,53.22
2018-07-14T00:30:40.891Z,52.93
2018-07-14T00:31:40.901Z,53.12
2018-07-14T00:32:40.879Z,53.12
2018-07-14T00:34:01.880Z,53.12
2018-07-14T00:34:40.867Z,53.22
2018-07-14T00:35:40.862Z,53.49
2018-07-14T00:36:40.856Z,53.51
2018-07-14T00:37:40.851Z,53.41
2018-07-14T00:38:40.845Z,53.31
2018-07-14T00:40:01.845Z,53.61
2018-07-14T00:40:40.834Z,53.58
2018-07-14T00:41:40.825Z,53.51
2018-07-14T00:42:40.822Z,53.61
2018-07-14T00:43:40.815Z,53.41
2018-07-14T00:44:40.849Z,53.61
2018-07-14T00:46:01.811Z,53.31
2018-07-14T00:46:40.796Z,53.41
2018-07-14T00:47:40.793Z,53.51
2018-07-14T00:48:40.785Z,53.31
2018-07-14T00:49:40.780Z,53.41
2018-07-14T00:50:40.775Z,53.51
2018-07-14T00:52:01.774Z,53.61
2018-07-14T00:52:40.765Z,53.51
2018-07-14T00:53:40.788Z,53.51
2018-07-14T00:54:40.751Z,53.61
2018-07-14T00:55:40.745Z,53.51
2018-07-14T00:56:40.740Z,53.51
2018-07-14T00:58:01.745Z,53.41
2018-07-14T00:58:40.727Z,53.51
2018-07-14T00:59:40.723Z,53.51
2018-07-14T01:00:40.716Z,53.49
2018-07-14T01:01:40.716Z,53.41
2018-07-14T01:02:40.751Z,54.09
2018-07-14T01:04:01.706Z,53.41
2018-07-14T01:04:40.697Z,53.99
2018-07-14T01:05:40.690Z,54.09
2018-07-14T01:06:40.681Z,53.99
2018-07-14T01:07:40.674Z,53.87
2018-07-14T01:08:40.674Z,53.80
2018-07-14T01:10:01.670Z,53.89
2018-07-14T01:10:40.658Z,53.97
2018-07-14T01:11:40.650Z,53.89
2018-07-14T01:12:40.645Z,53.77
2018-07-14T01:13:40.640Z,53.80
2018-07-14T01:14:40.634Z,53.80
2018-07-14T01:16:01.636Z,53.61
2018-07-14T01:16:40.622Z,53.61
2018-07-14T01:17:40.682Z,53.61
2018-07-14T01:18:40.611Z,53.77
2018-07-14T01:19:40.604Z,53.87
2018-07-14T01:20:40.598Z,53.61
2018-07-14T01:22:01.600Z,53.77
2018-07-14T01:22:40.587Z,53.80
2018-07-14T01:23:40.583Z,53.80
2018-07-14T01:24:40.578Z,53.77
2018-07-14T01:25:40.569Z,53.80
2018-07-14T01:26:40.564Z,53.77
2018-07-14T01:28:01.563Z,53.80
2018-07-14T01:28:40.553Z,53.70
2018-07-14T01:29:40.547Z,53.80
2018-07-14T01:30:40.540Z,53.70
2018-07-14T01:31:40.533Z,53.70
2018-07-14T01:32:40.528Z,53.89
2018-07-14T01:34:01.530Z,53.89
2018-07-14T01:34:40.519Z,53.99
2018-07-14T01:35:40.509Z,53.99
2018-07-14T01:36:40.505Z,53.89
2018-07-14T01:37:40.498Z,53.99
2018-07-14T01:38:40.492Z,53.89
2018-07-14T01:40:01.491Z,53.99
2018-07-14T01:40:40.486Z,53.99
2018-07-14T01:41:40.480Z,53.99
2018-07-14T01:42:40.469Z,53.70
2018-07-14T01:43:40.464Z,53.80
2018-07-14T01:44:40.463Z,53.80
2018-07-14T01:46:01.456Z,53.70
2018-07-14T01:46:40.445Z,53.89
2018-07-14T01:47:40.440Z,53.70
2018-07-14T01:48:40.432Z,53.80
2018-07-14T01:49:40.430Z,53.80
2018-07-14T01:50:40.423Z,53.61
2018-07-14T01:52:01.422Z,53.89
2018-07-14T01:52:40.413Z,53.80
2018-07-14T01:53:40.405Z,53.80
2018-07-14T01:54:40.398Z,53.80
2018-07-14T01:55:40.392Z,53.99
2018-07-14T01:56:40.388Z,53.99
2018-07-14T01:58:01.417Z,54.09
2018-07-14T01:58:40.377Z,53.80
2018-07-14T01:59:40.371Z,54.28
2018-07-14T02:00:40.364Z,54.48
2018-07-14T02:01:40.357Z,54.26
2018-07-14T02:02:40.354Z,54.26
2018-07-14T02:04:01.351Z,54.19
2018-07-14T02:04:40.339Z,54.09
2018-07-14T02:05:40.333Z,54.16
2018-07-14T02:06:40.328Z,54.19
2018-07-14T02:07:40.318Z,54.26
2018-07-14T02:08:40.315Z,54.16
2018-07-14T02:10:01.316Z,54.38
2018-07-14T02:10:40.304Z,54.06
2018-07-14T02:11:40.297Z,54.16
2018-07-14T02:12:40.314Z,54.16
2018-07-14T02:13:40.285Z,54.09
2018-07-14T02:14:40.280Z,53.87
2018-07-14T02:16:01.281Z,54.19
2018-07-14T02:16:40.273Z,54.09
2018-07-14T02:17:40.262Z,54.19
2018-07-14T02:18:40.256Z,54.09
2018-07-14T02:19:40.249Z,54.26
2018-07-14T02:20:40.244Z,54.35
2018-07-14T02:22:01.246Z,54.48
2018-07-14T02:22:40.232Z,54.38
2018-07-14T02:23:40.225Z,53.97
2018-07-14T02:24:40.221Z,54.48
2018-07-14T02:25:40.215Z,54.38
2018-07-14T02:26:40.208Z,54.26
2018-07-14T02:28:01.209Z,54.38
2018-07-14T02:28:40.196Z,54.38
2018-07-14T02:29:40.192Z,54.16
2018-07-14T02:30:40.187Z,54.26
2018-07-14T02:31:40.179Z,54.26
2018-07-14T02:32:40.172Z,54.28
2018-07-14T02:34:01.175Z,54.26
2018-07-14T02:34:40.161Z,54.28
2018-07-14T02:35:40.155Z,54.06
2018-07-14T02:36:40.148Z,54.35
2018-07-14T02:37:40.144Z,54.28
2018-07-14T02:38:40.142Z,54.38
2018-07-14T02:40:01.137Z,53.97
2018-07-14T02:40:40.127Z,54.06
2018-07-14T02:41:40.120Z,53.97
2018-07-14T02:42:40.115Z,53.77
2018-07-14T02:43:40.107Z,53.97
2018-07-14T02:44:40.101Z,53.80
2018-07-14T02:46:01.104Z,53.99
2018-07-14T02:46:40.090Z,54.06
2018-07-14T02:47:40.082Z,54.16
2018-07-14T02:48:40.075Z,54.28
2018-07-14T02:49:40.074Z,54.09
2018-07-14T02:50:40.068Z,54.26
2018-07-14T02:52:01.066Z,54.26
2018-07-14T02:52:40.054Z,54.35
2018-07-14T02:53:40.052Z,54.26
2018-07-14T02:54:40.042Z,53.97
2018-07-14T02:55:40.036Z,54.16
2018-07-14T02:56:40.031Z,54.16
2018-07-14T02:58:01.032Z,53.87
2018-07-14T02:58:40.020Z,54.16
2018-07-14T02:59:40.035Z,54.06
2018-07-14T03:00:40.006Z,53.87
2018-07-14T03:01:40.000Z,54.16
2018-07-14T03:02:39.997Z,54.26
2018-07-14T03:04:00.994Z,54.26
2018-07-14T03:04:39.983Z,54.26
2018-07-14T03:05:39.975Z,54.26
2018-07-14T03:06:39.969Z,54.45
2018-07-14T03:07:39.964Z,54.26
2018-07-14T03:08:39.957Z,54.26
2018-07-14T03:10:00.959Z,54.26
2018-07-14T03:10:39.951Z,54.45
2018-07-14T03:11:39.939Z,54.35
2018-07-14T03:12:39.947Z,54.26
2018-07-14T03:13:39.928Z,54.26
2018-07-14T03:14:39.922Z,54.06
2018-07-14T03:16:00.932Z,54.35
2018-07-14T03:16:39.909Z,54.45
2018-07-14T03:17:39.903Z,54.16
2018-07-14T03:18:39.897Z,54.45
2018-07-14T03:19:39.893Z,54.35
2018-07-14T03:20:39.888Z,54.55
2018-07-14T03:22:00.887Z,54.45
2018-07-14T03:22:39.873Z,54.45
2018-07-14T03:23:39.867Z,54.45
2018-07-14T03:24:39.860Z,54.35
2018-07-14T03:25:39.855Z,54.26
2018-07-14T03:26:39.850Z,54.45
2018-07-14T03:28:00.850Z,54.64
2018-07-14T03:28:39.833Z,54.45
2018-07-14T03:29:39.829Z,54.55
2018-07-14T03:30:39.831Z,54.26
2018-07-14T03:31:39.818Z,54.55
2018-07-14T03:32:39.812Z,54.35
2018-07-14T03:34:00.812Z,54.45
2018-07-14T03:34:39.803Z,54.45
2018-07-14T03:35:39.794Z,54.16
2018-07-14T03:36:39.841Z,54.35
2018-07-14T03:37:39.782Z,54.35
2018-07-14T03:38:39.780Z,54.45
2018-07-14T03:40:00.776Z,54.35
2018-07-14T03:40:39.764Z,54.26
2018-07-14T03:41:39.757Z,54.35
2018-07-14T03:42:39.752Z,54.33
2018-07-14T03:43:39.745Z,54.55
2018-07-14T03:44:39.737Z,54.35
2018-07-14T03:46:00.743Z,54.35
2018-07-14T03:46:39.729Z,54.43
2018-07-14T03:47:39.720Z,54.55
2018-07-14T03:48:39.713Z,54.33
2018-07-14T03:49:39.708Z,54.35
2018-07-14T03:50:39.704Z,54.43
2018-07-14T03:52:00.702Z,54.13
2018-07-14T03:52:39.690Z,54.33
2018-07-14T03:53:39.685Z,54.23
2018-07-14T03:54:39.681Z,54.35
2018-07-14T03:55:39.675Z,54.35
2018-07-14T03:56:39.672Z,54.35
2018-07-14T03:58:00.669Z,54.35
2018-07-14T03:58:39.697Z,54.52
2018-07-14T03:59:39.651Z,54.33
2018-07-14T04:00:39.642Z,54.43
2018-07-14T04:01:39.635Z,54.71
2018-07-14T04:02:39.630Z,54.55
2018-07-14T04:04:00.629Z,54.55
2018-07-14T04:04:39.618Z,54.55
2018-07-14T04:05:39.611Z,54.33
2018-07-14T04:06:39.656Z,54.23
2018-07-14T04:07:39.599Z,54.16
2018-07-14T04:08:39.593Z,54.45
2018-07-14T04:10:00.595Z,54.55
2018-07-14T04:10:39.581Z,54.43
2018-07-14T04:11:39.574Z,54.55
2018-07-14T04:12:39.569Z,54.74
2018-07-14T04:13:39.566Z,54.62
2018-07-14T04:14:39.584Z,54.52
2018-07-14T04:16:00.556Z,54.55
2018-07-14T04:16:39.544Z,54.55
2018-07-14T04:17:39.540Z,54.52
2018-07-14T04:18:39.533Z,55.04
2018-07-14T04:19:39.526Z,54.55
2018-07-14T04:20:39.519Z,55.04
2018-07-14T04:22:00.521Z,54.45
2018-07-14T04:22:39.508Z,54.43
2018-07-14T04:23:39.507Z,54.74
2018-07-14T04:24:39.495Z,54.94
2018-07-14T04:25:39.494Z,54.84
2018-07-14T04:26:39.484Z,54.64
2018-07-14T04:28:00.482Z,54.84
2018-07-14T04:28:39.472Z,54.64
2018-07-14T04:29:39.465Z,54.45
2018-07-14T04:30:39.459Z,54.45
2018-07-14T04:31:39.451Z,54.45
2018-07-14T04:32:39.446Z,54.74
2018-07-14T04:34:00.448Z,54.45
2018-07-14T04:34:39.434Z,54.52
2018-07-14T04:35:39.430Z,54.74
2018-07-14T04:36:39.421Z,54.45
2018-07-14T04:37:39.417Z,54.45
2018-07-14T04:38:39.410Z,55.22
2018-07-14T04:40:00.411Z,54.64
2018-07-14T04:40:39.398Z,54.55
2018-07-14T04:41:39.392Z,54.62
2018-07-14T04:42:39.392Z,55.04
2018-07-14T04:43:39.386Z,55.13
2018-07-14T04:44:39.373Z,55.13
2018-07-14T04:46:00.405Z,55.13
2018-07-14T04:46:39.359Z,55.13
2018-07-14T04:47:39.354Z,54.74
2018-07-14T04:48:39.348Z,54.64
2018-07-14T04:49:39.349Z,54.55
2018-07-14T04:50:39.356Z,54.45
2018-07-14T04:52:00.339Z,54.55
2018-07-14T04:52:39.323Z,54.64
2018-07-14T04:53:39.318Z,54.64
2018-07-14T04:54:39.313Z,54.52
2018-07-14T04:55:39.305Z,55.04
2018-07-14T04:56:39.300Z,54.74
2018-07-14T04:58:00.300Z,55.10
2018-07-14T04:58:39.290Z,55.04
2018-07-14T04:59:39.280Z,54.55
2018-07-14T05:00:39.274Z,55.13
2018-07-14T05:01:39.270Z,55.04
2018-07-14T05:02:39.262Z,55.22
2018-07-14T05:04:00.262Z,55.13
2018-07-14T05:04:39.249Z,55.04
2018-07-14T05:05:39.245Z,54.94
2018-07-14T05:06:39.241Z,54.94
2018-07-14T05:07:39.233Z,55.04
2018-07-14T05:08:39.226Z,55.13
2018-07-14T05:10:00.229Z,55.13
2018-07-14T05:10:39.214Z,55.04
2018-07-14T05:11:39.207Z,54.94
2018-07-14T05:12:39.200Z,55.13
2018-07-14T05:13:39.195Z,55.22
2018-07-14T05:14:39.191Z,54.94
2018-07-14T05:16:00.191Z,55.13
2018-07-14T05:16:39.178Z,55.13
2018-07-14T05:17:39.173Z,54.94
2018-07-14T05:18:39.163Z,55.04
2018-07-14T05:19:39.158Z,55.22
2018-07-14T05:20:39.152Z,55.04
2018-07-14T05:22:00.155Z,55.00
2018-07-14T05:22:39.140Z,55.13
2018-07-14T05:23:39.133Z,55.22
2018-07-14T05:24:39.127Z,55.20
2018-07-14T05:25:39.123Z,55.00
2018-07-14T05:26:39.115Z,54.74
2018-07-14T05:28:00.114Z,55.04
2018-07-14T05:28:39.129Z,55.00
2018-07-14T05:29:39.097Z,55.04
2018-07-14T05:30:39.092Z,55.04
2018-07-14T05:31:39.084Z,55.00
2018-07-14T05:32:39.078Z,55.00
2018-07-14T05:34:00.081Z,55.10
2018-07-14T05:34:39.067Z,54.91
2018-07-14T05:35:39.061Z,55.00
2018-07-14T05:36:39.053Z,54.91
2018-07-14T05:37:39.047Z,55.00
2018-07-14T05:38:39.046Z,54.62
2018-07-14T05:40:00.044Z,55.00
2018-07-14T05:40:39.028Z,54.81
2018-07-14T05:41:39.024Z,54.81
2018-07-14T05:42:39.017Z,55.30
2018-07-14T05:43:39.011Z,55.30
2018-07-14T05:44:39.006Z,55.10
2018-07-14T05:46:00.008Z,55.30
2018-07-14T05:46:38.992Z,55.10
2018-07-14T05:47:38.987Z,55.10
2018-07-14T05:48:38.983Z,55.58
2018-07-14T05:49:38.973Z,55.20
2018-07-14T05:50:38.966Z,55.68
2018-07-14T05:51:59.980Z,55.10
2018-07-14T05:52:38.955Z,55.58
2018-07-14T05:53:38.948Z,55.49
2018-07-14T05:54:38.943Z,55.40
2018-07-14T05:55:38.936Z,55.58
2018-07-14T05:56:38.932Z,55.49
2018-07-14T05:57:59.931Z,55.20
2018-07-14T05:58:38.916Z,55.58
2018-07-14T05:59:38.911Z,55.20
2018-07-14T06:00:38.907Z,55.58
2018-07-14T06:01:38.899Z,55.68
2018-07-14T06:02:38.892Z,55.40
2018-07-14T06:03:59.891Z,55.10
2018-07-14T06:04:38.880Z,55.10
2018-07-14T06:05:38.873Z,55.20
2018-07-14T06:06:38.870Z,55.30
2018-07-14T06:07:38.872Z,55.30
2018-07-14T06:08:38.858Z,55.20
2018-07-14T06:09:59.857Z,54.91
2018-07-14T06:10:38.844Z,55.00
2018-07-14T06:11:38.837Z,55.40
2018-07-14T06:12:38.832Z,54.81
2018-07-14T06:13:38.824Z,54.91
2018-07-14T06:14:38.817Z,55.30
2018-07-14T06:15:59.818Z,55.30
2018-07-14T06:16:38.806Z,55.30
2018-07-14T06:17:38.802Z,55.30
2018-07-14T06:18:38.794Z,55.68
2018-07-14T06:19:38.849Z,55.20
2018-07-14T06:20:38.780Z,55.20
2018-07-14T06:21:59.781Z,55.58
2018-07-14T06:22:38.768Z,55.58
2018-07-14T06:23:38.762Z,55.58
2018-07-14T06:24:38.756Z,55.58
2018-07-14T06:25:38.749Z,55.49
2018-07-14T06:26:38.744Z,55.40
2018-07-14T06:27:59.743Z,55.40
2018-07-14T06:28:38.732Z,55.49
2018-07-14T06:29:38.725Z,55.49
2018-07-14T06:30:38.720Z,55.49
2018-07-14T06:31:38.714Z,55.30
2018-07-14T06:32:38.709Z,55.10
2018-07-14T06:33:59.707Z,55.32
2018-07-14T06:34:38.697Z,55.20
2018-07-14T06:35:38.689Z,54.91
2018-07-14T06:36:38.682Z,55.20
2018-07-14T06:37:38.676Z,54.94
2018-07-14T06:38:38.754Z,54.84
2018-07-14T06:39:59.675Z,55.13
2018-07-14T06:40:38.658Z,55.04
2018-07-14T06:41:38.651Z,55.13
2018-07-14T06:42:38.648Z,54.94
2018-07-14T06:43:38.646Z,54.94
2018-07-14T06:44:38.637Z,55.04
2018-07-14T06:45:59.635Z,55.04
2018-07-14T06:46:38.621Z,54.94
2018-07-14T06:47:38.619Z,55.13
2018-07-14T06:48:38.608Z,55.22
2018-07-14T06:49:38.604Z,55.04
2018-07-14T06:50:38.596Z,54.94
2018-07-14T06:51:59.596Z,54.96
2018-07-14T06:52:38.587Z,55.04
2018-07-14T06:53:38.579Z,55.16
2018-07-14T06:54:38.574Z,54.45
2018-07-14T06:55:38.566Z,54.77
2018-07-14T06:56:38.561Z,54.38
2018-07-14T06:57:59.566Z,54.58
2018-07-14T06:58:38.549Z,54.38
2018-07-14T06:59:38.542Z,54.38
2018-07-14T07:00:38.536Z,54.38
2018-07-14T07:01:38.533Z,54.48
2018-07-14T07:02:38.526Z,54.38
2018-07-14T07:03:59.525Z,54.19
2018-07-14T07:04:38.512Z,54.48
2018-07-14T07:05:38.507Z,54.09
2018-07-14T07:06:38.501Z,54.28
2018-07-14T07:07:38.495Z,54.28
2018-07-14T07:08:38.489Z,54.09
2018-07-14T07:09:59.489Z,54.19
2018-07-14T07:10:38.478Z,54.28
2018-07-14T07:11:38.476Z,53.80
2018-07-14T07:12:38.465Z,53.99
2018-07-14T07:13:38.504Z,53.99
2018-07-14T07:14:38.452Z,54.19
2018-07-14T07:15:59.451Z,54.28
2018-07-14T07:16:38.468Z,54.19
2018-07-14T07:17:38.436Z,54.28
2018-07-14T07:18:38.430Z,54.09
2018-07-14T07:19:38.430Z,54.38
2018-07-14T07:20:38.419Z,53.99
2018-07-14T07:21:59.420Z,54.09
2018-07-14T07:22:38.407Z,53.80
2018-07-14T07:23:38.398Z,53.80
2018-07-14T07:24:38.395Z,53.83
2018-07-14T07:25:38.389Z,54.31
2018-07-14T07:26:38.389Z,54.31
2018-07-14T07:27:59.387Z,54.11
2018-07-14T07:28:38.405Z,54.11
2018-07-14T07:29:38.365Z,54.11
2018-07-14T07:30:38.362Z,54.21
2018-07-14T07:31:38.356Z,54.21
2018-07-14T07:32:38.350Z,54.21
2018-07-14T07:33:59.367Z,54.31
2018-07-14T07:34:38.395Z,54.31
2018-07-14T07:35:38.330Z,54.31
2018-07-14T07:36:38.325Z,54.11
2018-07-14T07:37:38.320Z,54.21
2018-07-14T07:38:38.315Z,54.41
2018-07-14T07:39:59.315Z,53.92
2018-07-14T07:40:38.302Z,53.95
2018-07-14T07:41:38.297Z,53.17
2018-07-14T07:42:38.292Z,53.37
2018-07-14T07:43:38.285Z,53.08
2018-07-14T07:44:38.280Z,52.98
2018-07-14T07:45:59.282Z,52.88
2018-07-14T07:46:38.269Z,52.78
2018-07-14T07:47:38.263Z,52.98
2018-07-14T07:48:38.257Z,53.08
2018-07-14T07:49:38.252Z,52.78
2018-07-14T07:50:38.247Z,52.59
2018-07-14T07:51:59.246Z,52.50
2018-07-14T07:52:38.235Z,52.40
2018-07-14T07:53:38.228Z,52.78
2018-07-14T07:54:38.224Z,52.40
2018-07-14T07:55:38.217Z,52.40
2018-07-14T07:56:38.219Z,52.78
2018-07-14T07:57:59.215Z,52.50
2018-07-14T07:58:38.202Z,52.40
2018-07-14T07:59:38.198Z,52.50
2018-07-14T08:00:38.190Z,52.40
2018-07-14T08:01:38.185Z,52.30
2018-07-14T08:02:38.180Z,52.40
2018-07-14T08:03:59.180Z,52.69
2018-07-14T08:04:38.168Z,52.59
2018-07-14T08:05:38.163Z,51.93
2018-07-14T08:06:38.162Z,52.33
2018-07-14T08:07:38.152Z,51.81
2018-07-14T08:08:38.172Z,51.75
2018-07-14T08:09:59.149Z,51.75
2018-07-14T08:10:38.135Z,51.93
2018-07-14T08:11:38.128Z,52.03
2018-07-14T08:12:38.124Z,52.03
2018-07-14T08:13:38.119Z,52.03
2018-07-14T08:14:38.114Z,52.03
2018-07-14T08:15:59.146Z,51.93
2018-07-14T08:16:38.102Z,52.23
2018-07-14T08:17:38.156Z,51.93
2018-07-14T08:18:38.092Z,51.93
2018-07-14T08:19:38.090Z,51.93
2018-07-14T08:20:38.085Z,51.84
2018-07-14T08:21:59.083Z,51.84
2018-07-14T08:22:38.104Z,51.65
2018-07-14T08:23:38.065Z,51.75
2018-07-14T08:24:38.061Z,51.35
2018-07-14T08:25:38.056Z,51.65
2018-07-14T08:26:38.048Z,52.03
2018-07-14T08:27:59.049Z,51.55
2018-07-14T08:28:38.039Z,51.35
2018-07-14T08:29:38.033Z,51.18
2018-07-14T08:30:38.032Z,51.35
2018-07-14T08:31:38.025Z,51.35
2018-07-14T08:32:38.020Z,51.26
2018-07-14T08:33:59.019Z,51.18
2018-07-14T08:34:38.007Z,51.09
2018-07-14T08:35:38.001Z,51.28
2018-07-14T08:36:37.996Z,50.89
2018-07-14T08:37:37.991Z,51.28
2018-07-14T08:38:37.989Z,50.89
2018-07-14T08:39:58.987Z,50.89
2018-07-14T08:40:37.976Z,50.99
2018-07-14T08:41:37.971Z,50.99
2018-07-14T08:42:37.966Z,51.09
2018-07-14T08:43:37.967Z,51.18
2018-07-14T08:44:37.954Z,51.09
2018-07-14T08:45:58.959Z,50.89
2018-07-14T08:46:37.947Z,50.70
2018-07-14T08:47:37.947Z,50.60
2018-07-14T08:48:37.936Z,50.80
2018-07-14T08:49:37.930Z,50.70
2018-07-14T08:50:37.990Z,50.60
2018-07-14T08:51:58.926Z,50.51
2018-07-14T08:52:37.917Z,50.63
2018-07-14T08:53:37.908Z,50.82
2018-07-14T08:54:37.903Z,51.01
2018-07-14T08:55:37.898Z,51.01
2018-07-14T08:56:37.895Z,50.73
2018-07-14T08:57:58.895Z,50.53
2018-07-14T08:58:37.895Z,50.43
2018-07-14T08:59:37.877Z,50.24
2018-07-14T09:00:37.873Z,50.24
2018-07-14T09:01:37.873Z,50.34
2018-07-14T09:02:37.863Z,50.04
2018-07-14T09:03:58.865Z,49.95
2018-07-14T09:04:37.852Z,50.24
2018-07-14T09:05:37.854Z,50.14
2018-07-14T09:06:37.843Z,50.24
2018-07-14T09:07:37.837Z,50.04
2018-07-14T09:08:37.832Z,50.24
2018-07-14T09:09:58.836Z,50.04
2018-07-14T09:10:37.824Z,49.95
2018-07-14T09:11:37.819Z,49.87
2018-07-14T09:12:37.814Z,49.78
2018-07-14T09:13:37.812Z,49.49
2018-07-14T09:14:37.804Z,49.58
2018-07-14T09:15:58.809Z,49.58
2018-07-14T09:16:37.796Z,49.39
2018-07-14T09:17:37.789Z,49.78
2018-07-14T09:18:37.783Z,49.87
2018-07-14T09:19:37.779Z,49.78
2018-07-14T09:20:37.778Z,49.49
2018-07-14T09:21:58.776Z,49.19
2018-07-14T09:22:37.777Z,49.29
2018-07-14T09:23:37.763Z,49.39
2018-07-14T09:24:37.757Z,49.39
2018-07-14T09:25:37.750Z,49.49
2018-07-14T09:26:37.748Z,49.58
2018-07-14T09:27:58.748Z,49.78
2018-07-14T09:28:37.736Z,49.10
2018-07-14T09:29:37.734Z,49.19
2018-07-14T09:30:37.727Z,49.00
2018-07-14T09:31:37.724Z,49.00
2018-07-14T09:32:37.766Z,49.22
2018-07-14T09:33:58.720Z,48.83
2018-07-14T09:34:37.708Z,48.83
2018-07-14T09:35:37.703Z,48.73
2018-07-14T09:36:37.701Z,48.63
2018-07-14T09:37:37.696Z,48.93
2018-07-14T09:38:37.689Z,48.63
2018-07-14T09:39:58.693Z,48.83
2018-07-14T09:40:37.679Z,48.73
2018-07-14T09:41:37.675Z,48.93
2018-07-14T09:42:37.672Z,48.63
2018-07-14T09:43:37.666Z,48.93
2018-07-14T09:44:37.742Z,48.83
2018-07-14T09:45:58.665Z,48.93
2018-07-14T09:46:37.653Z,48.63
2018-07-14T09:47:37.675Z,48.63
2018-07-14T09:48:37.645Z,48.44
2018-07-14T09:49:37.636Z,48.34
2018-07-14T09:50:37.635Z,48.25
2018-07-14T09:51:58.640Z,48.44
2018-07-14T09:52:37.729Z,48.93
2018-07-14T09:53:37.620Z,48.25
2018-07-14T09:54:37.634Z,48.44
2018-07-14T09:55:37.613Z,48.54
2018-07-14T09:56:37.606Z,48.54
2018-07-14T09:57:58.608Z,48.44
2018-07-14T09:58:37.601Z,48.44
2018-07-14T09:59:37.591Z,48.17
2018-07-14T10:00:37.589Z,48.25
2018-07-14T10:01:37.583Z,48.15
2018-07-14T10:02:37.577Z,48.05
2018-07-14T10:03:58.580Z,48.05
2018-07-14T10:04:37.581Z,47.98
2018-07-14T10:05:37.565Z,47.96
2018-07-14T10:06:37.562Z,48.07
2018-07-14T10:07:37.559Z,47.96
2018-07-14T10:08:37.550Z,48.05
2018-07-14T10:09:58.569Z,48.05
2018-07-14T10:10:37.544Z,48.17
2018-07-14T10:11:37.537Z,48.17
2018-07-14T10:12:37.540Z,48.15
2018-07-14T10:13:37.528Z,47.88
2018-07-14T10:14:37.526Z,47.88
2018-07-14T10:15:58.528Z,47.78
2018-07-14T10:16:37.515Z,47.59
2018-07-14T10:17:37.516Z,47.78
2018-07-14T10:18:37.506Z,47.88
2018-07-14T10:19:37.502Z,47.69
2018-07-14T10:20:37.498Z,47.39
2018-07-14T10:21:58.501Z,47.49
2018-07-14T10:22:37.491Z,47.49
2018-07-14T10:23:37.485Z,47.39
2018-07-14T10:24:37.482Z,47.39
2018-07-14T10:25:37.518Z,46.91
2018-07-14T10:26:37.472Z,47.39
2018-07-14T10:27:58.474Z,46.81
2018-07-14T10:28:37.465Z,47.00
2018-07-14T10:29:37.458Z,47.10
2018-07-14T10:30:37.455Z,47.00
2018-07-14T10:31:37.449Z,47.10
2018-07-14T10:32:37.445Z,46.71
2018-07-14T10:33:58.513Z,46.91
2018-07-14T10:34:37.437Z,46.71
2018-07-14T10:35:37.436Z,46.42
2018-07-14T10:36:37.427Z,46.81
2018-07-14T10:37:37.424Z,47.10
2018-07-14T10:38:37.445Z,46.51
2018-07-14T10:39:58.421Z,46.44
2018-07-14T10:40:37.410Z,46.13
2018-07-14T10:41:37.406Z,46.03
2018-07-14T10:42:37.403Z,46.23
2018-07-14T10:43:37.398Z,46.34
2018-07-14T10:44:37.394Z,46.54
2018-07-14T10:45:58.397Z,46.15
2018-07-14T10:46:37.451Z,46.34
2018-07-14T10:47:37.383Z,46.34
2018-07-14T10:48:37.375Z,45.86
2018-07-14T10:49:37.373Z,46.54
2018-07-14T10:50:37.369Z,46.05
2018-07-14T10:51:58.370Z,46.05
2018-07-14T10:52:37.359Z,46.15
2018-07-14T10:53:37.356Z,45.95
2018-07-14T10:54:37.352Z,46.25
2018-07-14T10:55:37.346Z,46.25
2018-07-14T10:56:37.343Z,45.95
2018-07-14T10:57:58.393Z,45.67
2018-07-14T10:58:37.334Z,45.86
2018-07-14T10:59:37.329Z,45.86
2018-07-14T11:00:37.327Z,45.67
2018-07-14T11:01:37.323Z,45.37
2018-07-14T11:02:37.317Z,45.47
2018-07-14T11:03:58.319Z,45.37
2018-07-14T11:04:37.312Z,44.98
2018-07-14T11:05:37.305Z,45.18
2018-07-14T11:06:37.301Z,45.37
2018-07-14T11:07:37.295Z,45.37
2018-07-14T11:08:37.293Z,45.18
2018-07-14T11:09:58.296Z,45.37
2018-07-14T11:10:37.284Z,45.37
2018-07-14T11:11:37.279Z,45.18
2018-07-14T11:12:37.274Z,45.37
2018-07-14T11:13:37.271Z,45.28
2018-07-14T11:14:37.267Z,45.47
2018-07-14T11:15:58.299Z,45.18
2018-07-14T11:16:37.259Z,44.89
2018-07-14T11:17:37.270Z,44.89
2018-07-14T11:18:37.250Z,44.79
2018-07-14T11:19:38.084Z,44.98
2018-07-14T11:20:37.244Z,44.89
2018-07-14T11:21:58.404Z,45.08
2018-07-14T11:22:37.233Z,45.18
2018-07-14T11:23:37.232Z,45.08
2018-07-14T11:24:37.225Z,45.08
2018-07-14T11:25:37.220Z,45.28
2018-07-14T11:26:37.216Z,45.18
2018-07-14T11:27:58.219Z,45.18
2018-07-14T11:28:37.208Z,45.18
2018-07-14T11:29:37.204Z,45.08
2018-07-14T11:30:37.203Z,45.37
2018-07-14T11:31:37.197Z,44.89
2018-07-14T11:32:37.191Z,45.37
2018-07-14T11:33:58.195Z,44.98
2018-07-14T11:34:37.262Z,44.79
2018-07-14T11:35:37.182Z,44.89
2018-07-14T11:36:37.292Z,44.59
2018-07-14T11:37:37.175Z,44.59
2018-07-14T11:38:37.164Z,44.59
2018-07-14T11:39:58.189Z,44.79
2018-07-14T11:40:37.159Z,44.49
2018-07-14T11:41:37.155Z,44.79
2018-07-14T11:42:37.151Z,44.49
2018-07-14T11:43:37.144Z,44.79
2018-07-14T11:44:37.141Z,44.49
2018-07-14T11:45:58.143Z,44.69
2018-07-14T11:46:37.133Z,44.59
2018-07-14T11:47:37.176Z,45.08
2018-07-14T11:48:37.126Z,45.08
2018-07-14T11:49:37.121Z,45.08
2018-07-14T11:50:37.117Z,45.08
2018-07-14T11:51:58.121Z,44.69
2018-07-14T11:52:37.108Z,44.59
2018-07-14T11:53:37.104Z,44.59
2018-07-14T11:54:37.108Z,44.40
2018-07-14T11:55:37.096Z,44.40
2018-07-14T11:56:37.094Z,44.30
2018-07-14T11:57:58.099Z,44.40
2018-07-14T11:58:37.087Z,44.69
2018-07-14T11:59:37.079Z,44.49
2018-07-14T12:00:37.080Z,44.40
2018-07-14T12:01:37.073Z,44.59
2018-07-14T12:02:37.066Z,44.10
2018-07-14T12:03:58.069Z,44.01
2018-07-14T12:04:37.063Z,44.01
2018-07-14T12:05:37.058Z,44.10
2018-07-14T12:06:37.051Z,44.01
2018-07-14T12:07:37.047Z,44.30
2018-07-14T12:08:37.040Z,44.30
2018-07-14T12:09:58.048Z,44.20
2018-07-14T12:10:37.034Z,44.30
2018-07-14T12:11:37.029Z,44.30
2018-07-14T12:12:37.024Z,44.01
2018-07-14T12:13:37.021Z,44.01
2018-07-14T12:14:37.026Z,44.30
2018-07-14T12:15:58.030Z,44.20
2018-07-14T12:16:37.009Z,44.01
2018-07-14T12:17:37.003Z,44.20
2018-07-14T12:18:37.001Z,44.20
2018-07-14T12:19:36.995Z,44.28
2018-07-14T12:20:36.991Z,44.28
2018-07-14T12:21:57.996Z,44.30
2018-07-14T12:22:36.996Z,44.40
2018-07-14T12:23:36.979Z,43.89
2018-07-14T12:24:36.976Z,44.01
2018-07-14T12:25:36.980Z,43.99
2018-07-14T12:26:37.018Z,44.28
2018-07-14T12:27:57.970Z,44.48
2018-07-14T12:28:36.959Z,44.01
2018-07-14T12:29:36.954Z,43.91
2018-07-14T12:30:37.030Z,43.99
2018-07-14T12:31:36.946Z,43.79
2018-07-14T12:32:36.941Z,43.81
2018-07-14T12:33:57.945Z,44.01
2018-07-14T12:34:36.933Z,44.20
2018-07-14T12:35:36.931Z,44.38
2018-07-14T12:36:36.932Z,44.28
2018-07-14T12:37:36.921Z,44.18
2018-07-14T12:38:36.916Z,44.38
2018-07-14T12:39:57.919Z,44.38
2018-07-14T12:40:36.909Z,44.18
2018-07-14T12:41:36.903Z,44.18
2018-07-14T12:42:36.900Z,44.18
2018-07-14T12:43:36.894Z,44.10
2018-07-14T12:44:36.891Z,44.18
2018-07-14T12:45:57.895Z,44.18
2018-07-14T12:46:36.884Z,44.09
2018-07-14T12:47:36.876Z,44.09
2018-07-14T12:48:36.875Z,44.09
2018-07-14T12:49:36.871Z,44.09
2018-07-14T12:50:36.866Z,44.09
2018-07-14T12:51:57.866Z,43.99
2018-07-14T12:52:36.859Z,44.09